sensor_id;sensor_type;location;lat;lon;timestamp;pressure;altitude;pressure_sealevel;temperature;humidity
34103;BME280;20381;54.498;18.206;2022-09-02T00:01:00;100397.66;;;6.90;78.28
34103;BME280;20381;54.498;18.206;2022-09-02T00:03:31;100405.89;;;6.90;78.40
34103;BME280;20381;54.498;18.206;2022-09-02T00:06:01;100397.66;;;6.90;78.43
34103;BME280;20381;54.498;18.206;2022-09-02T00:08:28;100402.84;;;6.90;78.46
34103;BME280;20381;54.498;18.206;2022-09-02T00:10:57;100401.95;;;6.91;78.57
34103;BME280;20381;54.498;18.206;2022-09-02T00:13:27;100409.80;;;6.88;78.55
34103;BME280;20381;54.498;18.206;2022-09-02T00:15:54;100404.61;;;6.88;78.70
34103;BME280;20381;54.498;18.206;2022-09-02T00:18:21;100403.74;;;6.89;78.83
34103;BME280;20381;54.498;18.206;2022-09-02T00:20:50;100402.02;;;6.88;78.85
34103;BME280;20381;54.498;18.206;2022-09-02T00:23:16;100400.40;;;6.83;78.74
34103;BME280;20381;54.498;18.206;2022-09-02T00:25:44;100403.58;;;6.76;78.74
34103;BME280;20381;54.498;18.206;2022-09-02T00:28:12;100406.37;;;6.67;78.73
34103;BME280;20381;54.498;18.206;2022-09-02T00:30:40;100406.05;;;6.61;78.77
34103;BME280;20381;54.498;18.206;2022-09-02T00:33:08;100404.38;;;6.59;78.96
34103;BME280;20381;54.498;18.206;2022-09-02T00:35:36;100400.81;;;6.63;79.08
34103;BME280;20381;54.498;18.206;2022-09-02T00:38:03;100405.98;;;6.64;79.18
34103;BME280;20381;54.498;18.206;2022-09-02T00:40:30;100408.05;;;6.69;79.31
34103;BME280;20381;54.498;18.206;2022-09-02T00:42:57;100395.86;;;6.73;79.48
34103;BME280;20381;54.498;18.206;2022-09-02T00:45:24;100400.20;;;6.72;79.47
34103;BME280;20381;54.498;18.206;2022-09-02T00:47:51;100400.15;;;6.74;79.55
34103;BME280;20381;54.498;18.206;2022-09-02T00:50:22;100397.94;;;6.77;79.49
34103;BME280;20381;54.498;18.206;2022-09-02T00:52:59;100396.63;;;6.78;79.50
34103;BME280;20381;54.498;18.206;2022-09-02T00:55:26;100397.02;;;6.79;79.61
34103;BME280;20381;54.498;18.206;2022-09-02T00:58:05;100392.66;;;6.81;79.64
34103;BME280;20381;54.498;18.206;2022-09-02T01:00:37;100391.81;;;6.81;79.68
34103;BME280;20381;54.498;18.206;2022-09-02T01:03:10;100389.23;;;6.79;79.67
34103;BME280;20381;54.498;18.206;2022-09-02T01:05:41;100394.49;;;6.76;79.63
34103;BME280;20381;54.498;18.206;2022-09-02T01:08:12;100394.13;;;6.72;79.69
34103;BME280;20381;54.498;18.206;2022-09-02T01:10:43;100388.94;;;6.72;79.94
34103;BME280;20381;54.498;18.206;2022-09-02T01:13:13;100389.32;;;6.75;80.05
34103;BME280;20381;54.498;18.206;2022-09-02T01:15:45;100392.73;;;6.78;80.11
34103;BME280;20381;54.498;18.206;2022-09-02T01:18:18;100385.34;;;6.79;80.13
34103;BME280;20381;54.498;18.206;2022-09-02T01:20:47;100390.94;;;6.80;80.18
34103;BME280;20381;54.498;18.206;2022-09-02T01:23:14;100393.06;;;6.82;80.23
34103;BME280;20381;54.498;18.206;2022-09-02T01:25:42;100391.75;;;6.84;80.24
34103;BME280;20381;54.498;18.206;2022-09-02T01:28:12;100388.70;;;6.84;80.27
34103;BME280;20381;54.498;18.206;2022-09-02T01:30:45;100390.40;;;6.85;80.22
34103;BME280;20381;54.498;18.206;2022-09-02T01:33:13;100393.96;;;6.81;80.19
34103;BME280;20381;54.498;18.206;2022-09-02T01:35:40;100389.32;;;6.75;80.16
34103;BME280;20381;54.498;18.206;2022-09-02T01:38:06;100396.78;;;6.70;80.24
34103;BME280;20381;54.498;18.206;2022-09-02T01:40:34;100393.80;;;6.68;80.46
34103;BME280;20381;54.498;18.206;2022-09-02T01:43:04;100394.70;;;6.67;80.58
34103;BME280;20381;54.498;18.206;2022-09-02T01:45:34;100392.16;;;6.64;80.63
34103;BME280;20381;54.498;18.206;2022-09-02T01:48:02;100389.57;;;6.64;80.74
34103;BME280;20381;54.498;18.206;2022-09-02T01:50:30;100392.16;;;6.64;80.77
34103;BME280;20381;54.498;18.206;2022-09-02T01:52:58;100388.73;;;6.62;80.77
34103;BME280;20381;54.498;18.206;2022-09-02T01:55:28;100392.27;;;6.58;80.77
34103;BME280;20381;54.498;18.206;2022-09-02T01:57:56;100395.77;;;6.55;80.90
34103;BME280;20381;54.498;18.206;2022-09-02T02:00:23;100394.13;;;6.53;80.97
34103;BME280;20381;54.498;18.206;2022-09-02T02:02:50;100400.17;;;6.52;81.10
34103;BME280;20381;54.498;18.206;2022-09-02T02:05:17;100396.59;;;6.59;81.46
34103;BME280;20381;54.498;18.206;2022-09-02T02:07:45;100396.45;;;6.65;81.53
34103;BME280;20381;54.498;18.206;2022-09-02T02:10:13;100393.34;;;6.68;81.51
34103;BME280;20381;54.498;18.206;2022-09-02T02:12:42;100392.83;;;6.72;81.52
34103;BME280;20381;54.498;18.206;2022-09-02T02:15:12;100398.97;;;6.69;81.33
34103;BME280;20381;54.498;18.206;2022-09-02T02:17:40;100390.80;;;6.67;81.28
34103;BME280;20381;54.498;18.206;2022-09-02T02:20:08;100383.08;;;6.64;81.29
34103;BME280;20381;54.498;18.206;2022-09-02T02:22:36;100383.55;;;6.62;81.34
34103;BME280;20381;54.498;18.206;2022-09-02T02:25:06;100382.72;;;6.60;81.33
34103;BME280;20381;54.498;18.206;2022-09-02T02:27:33;100380.19;;;6.57;81.41
34103;BME280;20381;54.498;18.206;2022-09-02T02:30:00;100384.59;;;6.53;81.38
34103;BME280;20381;54.498;18.206;2022-09-02T02:32:27;100391.56;;;6.49;81.45
34103;BME280;20381;54.498;18.206;2022-09-02T02:34:53;100386.44;;;6.46;81.48
34103;BME280;20381;54.498;18.206;2022-09-02T02:37:21;100386.50;;;6.43;81.49
34103;BME280;20381;54.498;18.206;2022-09-02T02:39:47;100384.40;;;6.41;81.53
34103;BME280;20381;54.498;18.206;2022-09-02T02:42:14;100391.80;;;6.39;81.53
34103;BME280;20381;54.498;18.206;2022-09-02T02:44:42;100389.23;;;6.36;81.56
34103;BME280;20381;54.498;18.206;2022-09-02T02:47:09;100388.88;;;6.33;81.56
34103;BME280;20381;54.498;18.206;2022-09-02T02:49:38;100385.52;;;6.28;81.70
34103;BME280;20381;54.498;18.206;2022-09-02T02:52:11;100384.23;;;6.26;81.78
34103;BME280;20381;54.498;18.206;2022-09-02T02:54:38;100380.84;;;6.23;81.78
34103;BME280;20381;54.498;18.206;2022-09-02T02:57:05;100381.31;;;6.21;81.71
34103;BME280;20381;54.498;18.206;2022-09-02T02:59:33;100382.73;;;6.15;81.76
34103;BME280;20381;54.498;18.206;2022-09-02T03:02:02;100385.44;;;6.09;81.80
34103;BME280;20381;54.498;18.206;2022-09-02T03:04:29;100387.20;;;6.07;81.98
34103;BME280;20381;54.498;18.206;2022-09-02T03:06:56;100386.34;;;6.06;82.10
34103;BME280;20381;54.498;18.206;2022-09-02T03:09:23;100383.70;;;6.09;81.97
34103;BME280;20381;54.498;18.206;2022-09-02T03:11:49;100385.96;;;6.03;81.86
34103;BME280;20381;54.498;18.206;2022-09-02T03:14:16;100389.13;;;5.95;81.78
34103;BME280;20381;54.498;18.206;2022-09-02T03:16:43;100384.93;;;5.87;81.87
34103;BME280;20381;54.498;18.206;2022-09-02T03:19:10;100391.47;;;5.82;82.07
34103;BME280;20381;54.498;18.206;2022-09-02T03:21:39;100379.01;;;5.80;82.13
34103;BME280;20381;54.498;18.206;2022-09-02T03:24:07;100374.28;;;5.78;82.21
34103;BME280;20381;54.498;18.206;2022-09-02T03:26:35;100376.04;;;5.76;82.24
34103;BME280;20381;54.498;18.206;2022-09-02T03:29:02;100381.68;;;5.74;82.33
34103;BME280;20381;54.498;18.206;2022-09-02T03:31:29;100382.68;;;5.67;82.25
34103;BME280;20381;54.498;18.206;2022-09-02T03:33:56;100378.86;;;5.62;82.32
34103;BME280;20381;54.498;18.206;2022-09-02T03:36:29;100386.23;;;5.59;82.39
34103;BME280;20381;54.498;18.206;2022-09-02T03:38:59;100387.13;;;5.58;82.43
34103;BME280;20381;54.498;18.206;2022-09-02T03:41:26;100386.69;;;5.59;82.59
34103;BME280;20381;54.498;18.206;2022-09-02T03:43:53;100384.54;;;5.58;82.59
34103;BME280;20381;54.498;18.206;2022-09-02T03:46:20;100390.17;;;5.56;82.53
34103;BME280;20381;54.498;18.206;2022-09-02T03:48:47;100389.78;;;5.54;82.51
34103;BME280;20381;54.498;18.206;2022-09-02T03:51:15;100389.83;;;5.52;82.71
34103;BME280;20381;54.498;18.206;2022-09-02T03:53:43;100389.37;;;5.53;82.74
34103;BME280;20381;54.498;18.206;2022-09-02T03:56:11;100391.52;;;5.53;82.77
34103;BME280;20381;54.498;18.206;2022-09-02T03:58:39;100390.63;;;5.56;82.87
34103;BME280;20381;54.498;18.206;2022-09-02T04:01:07;100388.02;;;5.57;82.85
34103;BME280;20381;54.498;18.206;2022-09-02T04:03:41;100393.16;;;5.59;82.92
34103;BME280;20381;54.498;18.206;2022-09-02T04:06:09;100396.55;;;5.63;82.92
34103;BME280;20381;54.498;18.206;2022-09-02T04:08:42;100395.25;;;5.63;82.91
34103;BME280;20381;54.498;18.206;2022-09-02T04:11:08;100399.58;;;5.62;82.98
34103;BME280;20381;54.498;18.206;2022-09-02T04:13:36;100403.52;;;5.60;82.84
34103;BME280;20381;54.498;18.206;2022-09-02T04:16:11;100408.77;;;5.54;82.80
34103;BME280;20381;54.498;18.206;2022-09-02T04:18:40;100406.17;;;5.54;82.97
34103;BME280;20381;54.498;18.206;2022-09-02T04:21:07;100404.47;;;5.55;83.01
34103;BME280;20381;54.498;18.206;2022-09-02T04:23:34;100405.31;;;5.55;83.07
34103;BME280;20381;54.498;18.206;2022-09-02T04:26:13;100405.27;;;5.58;83.14
34103;BME280;20381;54.498;18.206;2022-09-02T04:28:41;100410.80;;;5.63;83.26
34103;BME280;20381;54.498;18.206;2022-09-02T04:31:15;100409.83;;;5.70;83.33
34103;BME280;20381;54.498;18.206;2022-09-02T04:33:38;100412.77;;;5.74;83.32
34103;BME280;20381;54.498;18.206;2022-09-02T04:36:08;100413.56;;;5.79;83.38
34103;BME280;20381;54.498;18.206;2022-09-02T04:38:36;100410.91;;;5.82;83.33
34103;BME280;20381;54.498;18.206;2022-09-02T04:41:08;100413.45;;;5.85;83.42
34103;BME280;20381;54.498;18.206;2022-09-02T04:43:37;100419.46;;;5.89;83.33
34103;BME280;20381;54.498;18.206;2022-09-02T04:46:06;100409.05;;;5.90;83.39
34103;BME280;20381;54.498;18.206;2022-09-02T04:48:36;100421.13;;;5.94;83.38
34103;BME280;20381;54.498;18.206;2022-09-02T04:51:06;100420.12;;;6.01;83.64
34103;BME280;20381;54.498;18.206;2022-09-02T04:53:36;100421.36;;;7.14;85.37
34103;BME280;20381;54.498;18.206;2022-09-02T04:56:06;100410.22;;;8.18;85.26
34103;BME280;20381;54.498;18.206;2022-09-02T04:58:35;100412.88;;;9.64;84.91
34103;BME280;20381;54.498;18.206;2022-09-02T05:01:09;100404.09;;;10.92;84.43
34103;BME280;20381;54.498;18.206;2022-09-02T05:03:39;100403.36;;;11.99;83.37
34103;BME280;20381;54.498;18.206;2022-09-02T05:06:10;100391.84;;;12.82;82.21
34103;BME280;20381;54.498;18.206;2022-09-02T05:08:38;100394.10;;;13.63;82.32
34103;BME280;20381;54.498;18.206;2022-09-02T05:11:09;100391.09;;;14.74;82.40
34103;BME280;20381;54.498;18.206;2022-09-02T05:13:39;100396.20;;;15.40;81.62
34103;BME280;20381;54.498;18.206;2022-09-02T05:16:06;100386.70;;;16.43;81.97
34103;BME280;20381;54.498;18.206;2022-09-02T05:18:33;100376.27;;;17.26;80.92
34103;BME280;20381;54.498;18.206;2022-09-02T05:21:05;100380.74;;;17.38;79.17
34103;BME280;20381;54.498;18.206;2022-09-02T05:23:32;100377.82;;;17.62;79.42
34103;BME280;20381;54.498;18.206;2022-09-02T05:26:05;100379.44;;;17.85;78.56
34103;BME280;20381;54.498;18.206;2022-09-02T05:28:33;100375.73;;;18.00;78.21
34103;BME280;20381;54.498;18.206;2022-09-02T05:31:04;100371.42;;;17.99;77.49
34103;BME280;20381;54.498;18.206;2022-09-02T05:33:33;100375.50;;;18.10;77.55
34103;BME280;20381;54.498;18.206;2022-09-02T05:36:08;100375.02;;;18.37;77.63
34103;BME280;20381;54.498;18.206;2022-09-02T05:38:41;100373.73;;;18.81;77.81
34103;BME280;20381;54.498;18.206;2022-09-02T05:41:14;100372.37;;;19.12;77.63
34103;BME280;20381;54.498;18.206;2022-09-02T05:43:43;100375.19;;;19.45;77.67
34103;BME280;20381;54.498;18.206;2022-09-02T05:46:12;100376.63;;;19.98;77.74
34103;BME280;20381;54.498;18.206;2022-09-02T05:48:46;100373.43;;;20.28;76.47
34103;BME280;20381;54.498;18.206;2022-09-02T05:51:51;100376.93;;;20.40;76.00
34103;BME280;20381;54.498;18.206;2022-09-02T05:54:21;100378.39;;;20.66;76.17
34103;BME280;20381;54.498;18.206;2022-09-02T05:56:52;100378.34;;;21.11;75.31
34103;BME280;20381;54.498;18.206;2022-09-02T05:59:21;100372.05;;;21.23;74.41
34103;BME280;20381;54.498;18.206;2022-09-02T06:01:49;100373.89;;;21.55;74.21
34103;BME280;20381;54.498;18.206;2022-09-02T06:04:16;100373.84;;;21.66;74.22
34103;BME280;20381;54.498;18.206;2022-09-02T06:06:44;100378.23;;;21.83;73.24
34103;BME280;20381;54.498;18.206;2022-09-02T06:09:18;100375.23;;;21.82;72.56
34103;BME280;20381;54.498;18.206;2022-09-02T06:11:42;100373.84;;;21.66;72.41
34103;BME280;20381;54.498;18.206;2022-09-02T06:14:19;100378.95;;;21.85;72.30
34103;BME280;20381;54.498;18.206;2022-09-02T06:16:48;100379.78;;;22.06;72.21
34103;BME280;20381;54.498;18.206;2022-09-02T06:19:20;100389.61;;;22.42;72.34
34103;BME280;20381;54.498;18.206;2022-09-02T06:21:48;100381.79;;;22.81;72.19
34103;BME280;20381;54.498;18.206;2022-09-02T06:24:14;100379.25;;;23.20;72.17
34103;BME280;20381;54.498;18.206;2022-09-02T06:26:41;100373.39;;;23.45;70.96
34103;BME280;20381;54.498;18.206;2022-09-02T06:29:09;100374.80;;;23.88;71.06
34103;BME280;20381;54.498;18.206;2022-09-02T06:31:39;100377.05;;;23.93;69.90
34103;BME280;20381;54.498;18.206;2022-09-02T06:34:06;100382.27;;;23.75;68.55
34103;BME280;20381;54.498;18.206;2022-09-02T06:36:34;100378.02;;;23.63;68.67
34103;BME280;20381;54.498;18.206;2022-09-02T06:39:00;100378.84;;;23.63;68.20
34103;BME280;20381;54.498;18.206;2022-09-02T06:41:29;100376.63;;;23.88;68.57
34103;BME280;20381;54.498;18.206;2022-09-02T06:43:58;100377.45;;;23.88;67.60
34103;BME280;20381;54.498;18.206;2022-09-02T06:46:33;100380.55;;;23.94;67.10
34103;BME280;20381;54.498;18.206;2022-09-02T06:49:03;100387.77;;;23.68;66.16
34103;BME280;20381;54.498;18.206;2022-09-02T06:51:35;100391.89;;;23.37;65.67
34103;BME280;20381;54.498;18.206;2022-09-02T06:54:04;100383.16;;;23.16;65.67
34103;BME280;20381;54.498;18.206;2022-09-02T06:56:33;100383.98;;;22.97;64.44
34103;BME280;20381;54.498;18.206;2022-09-02T06:59:01;100378.16;;;22.51;64.44
34103;BME280;20381;54.498;18.206;2022-09-02T07:01:30;100384.92;;;22.55;64.40
34103;BME280;20381;54.498;18.206;2022-09-02T07:03:59;100382.80;;;22.49;64.42
34103;BME280;20381;54.498;18.206;2022-09-02T07:06:47;100386.83;;;22.44;63.74
34103;BME280;20381;54.498;18.206;2022-09-02T07:09:18;100384.59;;;22.33;63.41
34103;BME280;20381;54.498;18.206;2022-09-02T07:11:51;100392.43;;;22.20;63.25
34103;BME280;20381;54.498;18.206;2022-09-02T07:14:18;100387.51;;;21.88;62.62
34103;BME280;20381;54.498;18.206;2022-09-02T07:16:48;100386.45;;;21.53;62.00
34103;BME280;20381;54.498;18.206;2022-09-02T07:19:18;100389.24;;;20.86;62.41
34103;BME280;20381;54.498;18.206;2022-09-02T07:21:46;100393.23;;;20.63;62.82
34103;BME280;20381;54.498;18.206;2022-09-02T07:24:15;100397.45;;;20.02;60.29
34103;BME280;20381;54.498;18.206;2022-09-02T07:26:42;100399.03;;;19.45;61.25
34103;BME280;20381;54.498;18.206;2022-09-02T07:29:10;100399.87;;;19.22;62.07
34103;BME280;20381;54.498;18.206;2022-09-02T07:31:40;100401.12;;;19.11;61.44
34103;BME280;20381;54.498;18.206;2022-09-02T07:34:09;100406.76;;;18.75;61.08
34103;BME280;20381;54.498;18.206;2022-09-02T07:36:36;100405.89;;;18.62;61.67
34103;BME280;20381;54.498;18.206;2022-09-02T07:39:06;100397.20;;;18.60;61.64
34103;BME280;20381;54.498;18.206;2022-09-02T07:41:34;100403.36;;;18.47;61.41
34103;BME280;20381;54.498;18.206;2022-09-02T07:44:03;100402.71;;;18.56;61.73
34103;BME280;20381;54.498;18.206;2022-09-02T07:46:30;100402.57;;;18.52;60.58
34103;BME280;20381;54.498;18.206;2022-09-02T07:49:02;100398.96;;;18.53;61.54
34103;BME280;20381;54.498;18.206;2022-09-02T07:51:33;100400.67;;;18.54;60.83
34103;BME280;20381;54.498;18.206;2022-09-02T07:54:01;100411.34;;;18.53;61.10
34103;BME280;20381;54.498;18.206;2022-09-02T07:56:29;100399.36;;;18.29;59.11
34103;BME280;20381;54.498;18.206;2022-09-02T07:58:56;100403.27;;;18.03;59.49
34103;BME280;20381;54.498;18.206;2022-09-02T08:01:23;100403.55;;;17.93;60.26
34103;BME280;20381;54.498;18.206;2022-09-02T08:03:50;100406.85;;;18.09;60.88
34103;BME280;20381;54.498;18.206;2022-09-02T08:06:17;100402.55;;;18.01;59.76
34103;BME280;20381;54.498;18.206;2022-09-02T08:08:45;100403.03;;;18.14;60.31
34103;BME280;20381;54.498;18.206;2022-09-02T08:11:12;100401.45;;;17.98;58.82
34103;BME280;20381;54.498;18.206;2022-09-02T08:13:39;100404.85;;;17.46;59.28
34103;BME280;20381;54.498;18.206;2022-09-02T08:16:06;100408.59;;;17.56;60.50
34103;BME280;20381;54.498;18.206;2022-09-02T08:18:32;100410.06;;;18.07;60.95
34103;BME280;20381;54.498;18.206;2022-09-02T08:20:59;100411.08;;;18.50;59.24
34103;BME280;20381;54.498;18.206;2022-09-02T08:23:27;100411.49;;;18.31;59.74
34103;BME280;20381;54.498;18.206;2022-09-02T08:25:53;100414.72;;;18.17;58.93
34103;BME280;20381;54.498;18.206;2022-09-02T08:28:20;100417.09;;;18.01;59.16
34103;BME280;20381;54.498;18.206;2022-09-02T08:30:47;100408.44;;;18.25;59.85
34103;BME280;20381;54.498;18.206;2022-09-02T08:33:13;100412.89;;;18.63;60.30
34103;BME280;20381;54.498;18.206;2022-09-02T08:35:40;100419.22;;;18.22;56.71
34103;BME280;20381;54.498;18.206;2022-09-02T08:38:07;100417.00;;;17.76;57.73
34103;BME280;20381;54.498;18.206;2022-09-02T08:40:39;100411.78;;;17.34;58.22
34103;BME280;20381;54.498;18.206;2022-09-02T08:45:51;100413.84;;;16.88;58.71
34103;BME280;20381;54.498;18.206;2022-09-02T08:48:32;100417.97;;;16.56;58.81
34103;BME280;20381;54.498;18.206;2022-09-02T08:51:09;100420.59;;;16.42;59.03
34103;BME280;20381;54.498;18.206;2022-09-02T08:56:31;100418.70;;;16.37;59.67
34103;BME280;20381;54.498;18.206;2022-09-02T08:58:57;100425.47;;;16.41;59.78
34103;BME280;20381;54.498;18.206;2022-09-02T09:01:44;100422.00;;;16.54;60.12
34103;BME280;20381;54.498;18.206;2022-09-02T09:13:25;100416.81;;;17.10;59.84
34103;BME280;20381;54.498;18.206;2022-09-02T09:21:39;100423.80;;;16.97;60.14
34103;BME280;20381;54.498;18.206;2022-09-02T09:24:29;100413.45;;;16.94;60.17
34103;BME280;20381;54.498;18.206;2022-09-02T09:26:57;100415.97;;;17.03;60.33
34103;BME280;20381;54.498;18.206;2022-09-02T09:29:24;100418.70;;;17.08;60.18
34103;BME280;20381;54.498;18.206;2022-09-02T09:31:57;100420.22;;;17.12;60.15
34103;BME280;20381;54.498;18.206;2022-09-02T09:37:36;100418.53;;;17.11;60.00
34103;BME280;20381;54.498;18.206;2022-09-02T09:45:42;100419.94;;;16.74;59.99
34103;BME280;20381;54.498;18.206;2022-09-02T09:48:16;100420.60;;;16.56;60.58
34103;BME280;20381;54.498;18.206;2022-09-02T09:50:46;100427.09;;;16.50;60.62
34103;BME280;20381;54.498;18.206;2022-09-02T09:53:31;100420.59;;;16.49;60.81
34103;BME280;20381;54.498;18.206;2022-09-02T09:58:47;100422.29;;;16.57;60.90
34103;BME280;20381;54.498;18.206;2022-09-02T10:01:20;100417.57;;;16.55;61.08
34103;BME280;20381;54.498;18.206;2022-09-02T10:04:10;100415.70;;;16.57;61.13
34103;BME280;20381;54.498;18.206;2022-09-02T10:06:43;100419.28;;;16.70;61.13
34103;BME280;20381;54.498;18.206;2022-09-02T10:12:07;100423.77;;;17.26;60.95
34103;BME280;20381;54.498;18.206;2022-09-02T10:14:43;100423.14;;;17.42;61.04
34103;BME280;20381;54.498;18.206;2022-09-02T10:17:40;100416.13;;;17.55;60.98
34103;BME280;20381;54.498;18.206;2022-09-02T10:26:37;100409.43;;;18.17;60.25
34103;BME280;20381;54.498;18.206;2022-09-02T10:32:34;100409.03;;;17.90;59.24
34103;BME280;20381;54.498;18.206;2022-09-02T10:44:17;100408.97;;;18.81;59.59
34103;BME280;20381;54.498;18.206;2022-09-02T10:58:06;100413.08;;;17.61;59.12
34103;BME280;20381;54.498;18.206;2022-09-02T11:00:36;100415.70;;;17.68;59.31
34103;BME280;20381;54.498;18.206;2022-09-02T11:03:14;100411.47;;;18.06;59.41
34103;BME280;20381;54.498;18.206;2022-09-02T11:06:10;100412.05;;;18.49;59.56
34103;BME280;20381;54.498;18.206;2022-09-02T11:08:44;100410.37;;;18.92;59.12
34103;BME280;20381;54.498;18.206;2022-09-02T11:11:45;100404.65;;;19.17;58.93
34103;BME280;20381;54.498;18.206;2022-09-02T11:17:04;100410.67;;;18.82;57.64
34103;BME280;20381;54.498;18.206;2022-09-02T11:26:00;100408.41;;;17.72;57.60
34103;BME280;20381;54.498;18.206;2022-09-02T11:31:17;100405.28;;;17.87;58.38
34103;BME280;20381;54.498;18.206;2022-09-02T11:36:30;100399.06;;;18.65;58.32
34103;BME280;20381;54.498;18.206;2022-09-02T11:51:42;100398.75;;;19.61;56.40
34103;BME280;20381;54.498;18.206;2022-09-02T11:53:45;100397.23;;;19.22;56.54
34103;BME280;20381;54.498;18.206;2022-09-02T11:56:24;100395.28;;;19.00;56.32
34103;BME280;20381;54.498;18.206;2022-09-02T11:58:56;100392.11;;;18.95;56.32
34103;BME280;20381;54.498;18.206;2022-09-02T12:01:29;100396.08;;;18.76;55.16
34103;BME280;20381;54.498;18.206;2022-09-02T12:04:17;100399.23;;;18.69;55.83
34103;BME280;20381;54.498;18.206;2022-09-02T12:09:53;100393.41;;;18.64;55.81
34103;BME280;20381;54.498;18.206;2022-09-02T12:15:15;100393.11;;;18.30;55.17
34103;BME280;20381;54.498;18.206;2022-09-02T12:23:18;100386.64;;;18.34;55.71
34103;BME280;20381;54.498;18.206;2022-09-02T12:26:04;100381.98;;;18.63;55.44
34103;BME280;20381;54.498;18.206;2022-09-02T12:28:32;100383.72;;;18.70;55.35
34103;BME280;20381;54.498;18.206;2022-09-02T12:33:37;100379.78;;;18.44;53.95
34103;BME280;20381;54.498;18.206;2022-09-02T12:36:07;100381.70;;;18.29;54.40
34103;BME280;20381;54.498;18.206;2022-09-02T12:38:38;100386.75;;;18.20;54.55
34103;BME280;20381;54.498;18.206;2022-09-02T12:41:09;100375.14;;;18.09;54.76
34103;BME280;20381;54.498;18.206;2022-09-02T12:43:54;100369.97;;;18.01;54.62
34103;BME280;20381;54.498;18.206;2022-09-02T12:55:11;100362.52;;;17.67;54.78
34103;BME280;20381;54.498;18.206;2022-09-02T12:57:48;100363.11;;;17.58;54.83
34103;BME280;20381;54.498;18.206;2022-09-02T13:00:51;100359.23;;;17.84;55.42
34103;BME280;20381;54.498;18.206;2022-09-02T13:06:39;100357.45;;;18.48;55.32
34103;BME280;20381;54.498;18.206;2022-09-02T13:19:10;100379.69;;;17.67;55.33
34103;BME280;20381;54.498;18.206;2022-09-02T13:25:00;100376.36;;;17.51;55.50
34103;BME280;20381;54.498;18.206;2022-09-02T13:27:43;100375.61;;;17.49;55.71
34103;BME280;20381;54.498;18.206;2022-09-02T13:33:14;100378.91;;;17.26;55.88
34103;BME280;20381;54.498;18.206;2022-09-02T13:35:41;100382.27;;;17.28;56.16
34103;BME280;20381;54.498;18.206;2022-09-02T13:38:10;100379.19;;;17.28;56.42
34103;BME280;20381;54.498;18.206;2022-09-02T13:40:39;100381.91;;;17.27;56.38
34103;BME280;20381;54.498;18.206;2022-09-02T13:43:17;100381.75;;;17.22;56.52
34103;BME280;20381;54.498;18.206;2022-09-02T13:45:46;100379.06;;;17.37;56.63
34103;BME280;20381;54.498;18.206;2022-09-02T13:48:25;100377.06;;;17.60;56.73
34103;BME280;20381;54.498;18.206;2022-09-02T13:50:58;100365.73;;;17.65;56.55
34103;BME280;20381;54.498;18.206;2022-09-02T13:53:42;100375.33;;;17.66;56.50
34103;BME280;20381;54.498;18.206;2022-09-02T13:56:15;100364.63;;;17.55;56.48
34103;BME280;20381;54.498;18.206;2022-09-02T13:58:51;100360.78;;;17.34;56.36
34103;BME280;20381;54.498;18.206;2022-09-02T14:01:27;100363.97;;;17.12;56.71
34103;BME280;20381;54.498;18.206;2022-09-02T14:04:10;100367.84;;;17.06;56.73
34103;BME280;20381;54.498;18.206;2022-09-02T14:06:44;100361.45;;;16.96;56.71
34103;BME280;20381;54.498;18.206;2022-09-02T14:09:28;100356.40;;;16.78;57.01
34103;BME280;20381;54.498;18.206;2022-09-02T14:11:55;100356.00;;;16.70;57.12
34103;BME280;20381;54.498;18.206;2022-09-02T14:14:26;100358.64;;;16.70;57.17
34103;BME280;20381;54.498;18.206;2022-09-02T14:19:48;100362.03;;;16.72;57.18
34103;BME280;20381;54.498;18.206;2022-09-02T14:22:27;100363.91;;;16.70;57.15
34103;BME280;20381;54.498;18.206;2022-09-02T14:24:56;100374.27;;;16.73;57.20
34103;BME280;20381;54.498;18.206;2022-09-02T14:27:23;100373.91;;;16.87;57.31
34103;BME280;20381;54.498;18.206;2022-09-02T14:29:55;100375.87;;;16.90;57.20
34103;BME280;20381;54.498;18.206;2022-09-02T14:32:25;100365.04;;;16.95;57.33
34103;BME280;20381;54.498;18.206;2022-09-02T14:35:17;100370.48;;;17.06;57.38
34103;BME280;20381;54.498;18.206;2022-09-02T14:37:50;100367.59;;;17.23;57.53
34103;BME280;20381;54.498;18.206;2022-09-02T14:40:36;100367.20;;;17.50;57.31
34103;BME280;20381;54.498;18.206;2022-09-02T14:43:13;100371.08;;;17.51;57.20
34103;BME280;20381;54.498;18.206;2022-09-02T14:45:44;100379.20;;;17.48;57.23
34103;BME280;20381;54.498;18.206;2022-09-02T14:48:18;100372.82;;;17.38;57.28
34103;BME280;20381;54.498;18.206;2022-09-02T14:50:47;100375.95;;;17.30;57.22
34103;BME280;20381;54.498;18.206;2022-09-02T14:53:19;100371.92;;;17.25;57.46
34103;BME280;20381;54.498;18.206;2022-09-02T14:55:54;100370.05;;;17.19;57.34
34103;BME280;20381;54.498;18.206;2022-09-02T14:58:24;100368.40;;;17.11;57.20
34103;BME280;20381;54.498;18.206;2022-09-02T15:00:54;100370.68;;;17.03;57.40
34103;BME280;20381;54.498;18.206;2022-09-02T15:03:24;100370.88;;;17.00;57.37
34103;BME280;20381;54.498;18.206;2022-09-02T15:05:51;100372.36;;;16.97;57.47
34103;BME280;20381;54.498;18.206;2022-09-02T15:08:18;100364.84;;;16.98;57.54
34103;BME280;20381;54.498;18.206;2022-09-02T15:10:46;100363.41;;;16.99;57.44
34103;BME280;20381;54.498;18.206;2022-09-02T15:13:24;100359.97;;;16.92;57.44
34103;BME280;20381;54.498;18.206;2022-09-02T15:15:53;100362.20;;;16.91;57.51
34103;BME280;20381;54.498;18.206;2022-09-02T15:18:21;100358.28;;;16.84;57.57